createdAt,value
2023-04-27T00:00:49.320Z,4.79
2023-04-27T00:03:35.769Z,4.86
2023-04-27T00:06:22.453Z,6.12
2023-04-27T00:09:09.019Z,7.15
2023-04-27T00:11:55.368Z,7.78
2023-04-27T00:14:41.739Z,8.34
2023-04-27T00:17:28.083Z,8.45
2023-04-27T00:20:15.640Z,7.39
2023-04-27T00:23:02.282Z,6.33
2023-04-27T00:25:48.485Z,5.57
2023-04-27T00:28:34.799Z,5.01
2023-04-27T00:31:22.532Z,5.34
2023-04-27T00:34:09.109Z,6.65
2023-04-27T00:36:56.950Z,7.64
2023-04-27T00:39:43.199Z,8.19
2023-04-27T00:42:29.686Z,7.58
2023-04-27T00:45:16.342Z,6.41
2023-04-27T00:48:04.983Z,5.57
2023-04-27T00:50:52.026Z,5.35
2023-04-27T00:53:38.520Z,6.32
2023-04-27T00:56:25.493Z,7.23
2023-04-27T00:59:12.095Z,7.91
2023-04-27T01:01:59.234Z,7.75
2023-04-27T01:04:45.470Z,6.66
2023-04-27T01:07:32.370Z,5.73
2023-04-27T01:10:18.627Z,5.06
2023-04-27T01:13:05.549Z,4.87
2023-04-27T01:15:51.804Z,5.79
2023-04-27T01:18:40.044Z,6.76
2023-04-27T01:21:26.970Z,7.42
2023-04-27T01:24:13.481Z,7.83
2023-04-27T01:27:01.034Z,7.03
2023-04-27T01:29:47.403Z,5.96
2023-04-27T01:32:37.126Z,5.22
2023-04-27T01:35:23.409Z,5.05
2023-04-27T01:38:10.472Z,6.14
2023-04-27T01:41:01.399Z,6.95
2023-04-27T01:43:49.146Z,7.34
2023-04-27T01:46:36.084Z,7.65
2023-04-27T01:49:22.659Z,7.42
2023-04-27T01:52:08.969Z,6.40
2023-04-27T01:54:56.214Z,5.56
2023-04-27T01:57:42.881Z,5.23
2023-04-27T02:00:30.072Z,6.01
2023-04-27T02:03:17.165Z,6.91
2023-04-27T02:06:04.156Z,7.59
2023-04-27T02:08:50.991Z,8.10
2023-04-27T02:11:37.528Z,8.03
2023-04-27T02:14:23.915Z,6.94
2023-04-27T02:17:10.257Z,5.92
2023-04-27T02:19:59.305Z,5.52
2023-04-27T02:22:47.853Z,6.42
2023-04-27T02:25:37.557Z,7.21
2023-04-27T02:28:24.232Z,7.60
2023-04-27T02:31:11.554Z,7.87
2023-04-27T02:33:59.094Z,8.15
2023-04-27T02:36:45.776Z,8.44
2023-04-27T02:39:32.102Z,8.45
2023-04-27T02:42:18.760Z,7.58
2023-04-27T02:45:07.555Z,6.49
2023-04-27T02:47:53.886Z,5.64
2023-04-27T02:50:45.537Z,5.26
2023-04-27T02:53:32.066Z,6.08
2023-04-27T02:56:18.543Z,6.90
2023-04-27T02:59:05.148Z,7.23
2023-04-27T03:01:51.965Z,7.56
2023-04-27T03:04:38.973Z,7.78
2023-04-27T03:07:27.657Z,7.89
2023-04-27T03:10:14.004Z,7.60
2023-04-27T03:13:00.492Z,6.54
2023-04-27T03:15:48.109Z,5.60
2023-04-27T03:18:34.524Z,4.92
2023-04-27T03:21:21.832Z,4.70
2023-04-27T03:24:09.248Z,5.59
2023-04-27T03:26:55.822Z,6.44
2023-04-27T03:29:42.213Z,7.13
2023-04-27T03:32:30.432Z,7.46
2023-04-27T03:35:17.156Z,7.66
2023-04-27T03:38:04.862Z,6.87
2023-04-27T03:40:52.713Z,5.87
2023-04-27T03:43:39.178Z,5.14
2023-04-27T03:46:28.067Z,4.94
2023-04-27T03:49:14.828Z,5.99
2023-04-27T03:52:02.753Z,7.12
2023-04-27T03:54:49.102Z,7.75
2023-04-27T03:57:35.715Z,8.17
2023-04-27T04:00:22.336Z,8.56
2023-04-27T04:03:08.642Z,8.60
2023-04-27T04:05:55.238Z,7.52
2023-04-27T04:08:42.086Z,6.45
2023-04-27T04:11:28.480Z,5.71
2023-04-27T04:14:16.226Z,5.54
2023-04-27T04:17:02.711Z,6.55
2023-04-27T04:19:49.171Z,7.42
2023-04-27T04:22:38.191Z,8.06
2023-04-27T04:25:26.237Z,8.51
2023-04-27T04:28:12.595Z,9.00
2023-04-27T04:31:02.298Z,9.00
2023-04-27T04:33:51.396Z,7.93
2023-04-27T04:36:38.174Z,6.98
2023-04-27T04:39:33.038Z,6.69
2023-04-27T04:42:23.571Z,7.76
2023-04-27T04:45:16.147Z,8.51
2023-04-27T04:48:06.630Z,9.14
2023-04-27T04:50:56.739Z,9.55
2023-04-27T04:53:46.857Z,9.52
2023-04-27T04:56:37.139Z,8.49
2023-04-27T04:59:25.402Z,7.60
2023-04-27T05:02:15.164Z,7.91
2023-04-27T05:05:05.547Z,8.97
2023-04-27T05:07:59.414Z,9.79
2023-04-27T05:10:51.483Z,10.03
2023-04-27T05:13:41.333Z,9.23
2023-04-27T05:16:28.775Z,8.52
2023-04-27T05:19:20.130Z,8.50
2023-04-27T05:22:25.265Z,9.71
2023-04-27T05:25:11.981Z,10.58
2023-04-27T05:27:58.489Z,10.33
2023-04-27T05:30:45.426Z,10.00
2023-04-27T05:33:32.854Z,11.12
2023-04-27T05:36:19.506Z,13.47
2023-04-27T05:39:05.847Z,15.11
2023-04-27T05:41:53.472Z,15.95
2023-04-27T05:44:40.114Z,16.52
2023-04-27T05:47:27.386Z,16.95
2023-04-27T05:50:14.030Z,17.28
2023-04-27T05:53:01.246Z,17.65
2023-04-27T05:55:47.711Z,18.16
2023-04-27T05:58:34.548Z,18.25
2023-04-27T06:01:25.664Z,17.77
2023-04-27T06:04:13.014Z,17.85
2023-04-27T06:06:59.996Z,18.78
2023-04-27T06:09:46.429Z,19.93
2023-04-27T06:12:33.683Z,20.06
2023-04-27T06:15:20.337Z,20.11
2023-04-27T06:18:06.944Z,20.17
2023-04-27T06:21:02.427Z,19.90
2023-04-27T06:23:48.986Z,19.15
2023-04-27T06:26:36.459Z,18.58
2023-04-27T06:29:23.871Z,18.38
2023-04-27T06:32:10.683Z,18.04
2023-04-27T06:34:57.067Z,18.12
2023-04-27T06:37:49.369Z,18.76
2023-04-27T06:40:36.779Z,18.73
2023-04-27T06:43:25.771Z,17.97
2023-04-27T06:46:22.914Z,18.02
2023-04-27T06:49:10.766Z,18.60
2023-04-27T06:51:57.289Z,17.92
2023-04-27T06:54:46.240Z,16.74
2023-04-27T06:57:33.474Z,15.78
2023-04-27T07:00:21.334Z,15.17
2023-04-27T07:03:08.312Z,15.62
2023-04-27T07:05:56.652Z,15.37
2023-04-27T07:08:43.708Z,14.32
2023-04-27T07:11:30.404Z,13.22
2023-04-27T07:14:16.912Z,12.31
2023-04-27T07:17:03.315Z,11.64
2023-04-27T07:19:49.978Z,11.08
2023-04-27T07:22:36.653Z,10.59
2023-04-27T07:25:23.499Z,10.29
2023-04-27T07:28:10.268Z,10.46
2023-04-27T07:30:59.815Z,11.44
2023-04-27T07:33:47.106Z,11.51
2023-04-27T07:36:43.384Z,12.37
2023-04-27T07:39:35.131Z,14.58
2023-04-27T07:42:21.902Z,16.32
2023-04-27T07:45:09.654Z,16.47
2023-04-27T07:48:00.246Z,15.49
2023-04-27T07:50:46.662Z,14.36
2023-04-27T07:53:35.501Z,13.35
2023-04-27T07:56:24.269Z,12.47
2023-04-27T07:59:11.491Z,11.74
2023-04-27T08:02:15.007Z,11.08
2023-04-27T08:05:06.773Z,10.38
2023-04-27T08:07:55.058Z,9.84
2023-04-27T08:10:42.762Z,9.29
2023-04-27T08:13:29.378Z,8.79
2023-04-27T08:16:17.545Z,8.23
2023-04-27T08:19:03.989Z,7.67
2023-04-27T08:21:50.749Z,7.20
2023-04-27T08:24:38.172Z,6.81
2023-04-27T08:27:24.796Z,6.61
2023-04-27T08:30:12.179Z,6.76
2023-04-27T08:32:59.198Z,7.24
2023-04-27T08:35:46.668Z,8.25
2023-04-27T08:38:35.352Z,10.32
2023-04-27T08:41:23.279Z,12.78
2023-04-27T08:44:10.157Z,15.06
2023-04-27T08:47:04.471Z,17.19
2023-04-27T08:49:50.952Z,18.75
2023-04-27T08:52:39.387Z,20.11
2023-04-27T08:55:27.576Z,21.26
2023-04-27T08:58:14.076Z,21.94
2023-04-27T09:01:06.283Z,21.77
2023-04-27T09:04:05.579Z,20.36
2023-04-27T09:06:52.933Z,17.89
2023-04-27T09:09:39.896Z,15.72
2023-04-27T09:12:26.222Z,13.92
2023-04-27T09:15:14.505Z,12.56
2023-04-27T09:18:03.797Z,11.60
2023-04-27T09:20:55.875Z,11.04
2023-04-27T09:23:45.998Z,11.10
2023-04-27T09:26:32.705Z,12.47
2023-04-27T09:29:18.976Z,14.23
2023-04-27T09:32:20.670Z,15.71
2023-04-27T09:35:21.166Z,17.22
2023-04-27T09:38:08.594Z,18.01
2023-04-27T09:40:57.370Z,18.32
2023-04-27T09:43:45.658Z,18.28
2023-04-27T09:46:35.389Z,17.54
2023-04-27T09:49:23.042Z,16.34
2023-04-27T09:52:10.173Z,15.12
2023-04-27T09:54:58.986Z,13.95
2023-04-27T09:58:21.953Z,13.03
2023-04-27T10:01:25.432Z,12.21
2023-04-27T10:04:57.404Z,11.76
2023-04-27T10:07:45.017Z,11.62
2023-04-27T10:10:49.404Z,11.66
2023-04-27T10:13:36.596Z,12.57
2023-04-27T10:16:23.214Z,14.10
2023-04-27T10:19:09.771Z,15.43
2023-04-27T10:22:07.406Z,16.60
2023-04-27T10:24:53.460Z,17.49
2023-04-27T10:27:40.587Z,17.43
2023-04-27T10:30:38.441Z,16.42
2023-04-27T10:33:25.026Z,15.00
2023-04-27T10:36:15.479Z,13.70
2023-04-27T10:39:01.555Z,12.73
2023-04-27T10:41:56.085Z,12.46
2023-04-27T10:44:42.460Z,13.57
2023-04-27T10:47:44.873Z,15.05
2023-04-27T10:50:31.790Z,16.77
2023-04-27T10:53:18.379Z,17.97
2023-04-27T10:56:06.178Z,18.33
2023-04-27T10:58:52.777Z,18.27
2023-04-27T11:01:39.935Z,18.49
2023-04-27T11:04:41.232Z,18.18
2023-04-27T11:07:28.630Z,17.75
2023-04-27T11:10:19.323Z,18.46
2023-04-27T11:13:23.912Z,19.57
2023-04-27T11:16:11.786Z,20.44
2023-04-27T11:19:06.169Z,20.88
2023-04-27T11:22:02.583Z,21.32
2023-04-27T11:24:50.320Z,20.68
2023-04-27T11:27:41.372Z,19.61
2023-04-27T11:30:27.956Z,19.35
2023-04-27T11:33:14.714Z,19.34
2023-04-27T11:36:00.916Z,19.15
2023-04-27T11:38:51.469Z,19.09
2023-04-27T11:41:39.530Z,19.12
2023-04-27T11:44:27.199Z,18.94
2023-04-27T11:47:19.071Z,18.84
2023-04-27T11:50:09.221Z,18.56
2023-04-27T11:53:00.549Z,18.10
2023-04-27T11:55:51.916Z,17.70
2023-04-27T11:58:39.471Z,17.32
2023-04-27T12:01:36.899Z,16.83
2023-04-27T12:04:25.917Z,16.30
2023-04-27T12:07:14.088Z,15.63
2023-04-27T12:10:01.225Z,15.02
2023-04-27T12:12:48.065Z,14.70
2023-04-27T12:15:36.142Z,14.54
2023-04-27T12:18:22.416Z,14.17
2023-04-27T12:21:09.747Z,13.75
2023-04-27T12:23:56.014Z,13.45
2023-04-27T12:26:42.514Z,13.14
2023-04-27T12:29:29.446Z,12.94
2023-04-27T12:32:16.024Z,12.87
2023-04-27T12:35:02.278Z,12.77
2023-04-27T12:37:49.525Z,12.66
2023-04-27T12:40:37.202Z,12.56
2023-04-27T12:43:23.481Z,12.51
2023-04-27T12:46:09.888Z,12.46
2023-04-27T12:48:56.786Z,12.46
2023-04-27T12:51:44.892Z,12.50
2023-04-27T12:54:31.427Z,12.32
2023-04-27T12:57:17.724Z,12.08
2023-04-27T13:00:10.215Z,12.02
2023-04-27T13:03:00.524Z,12.03
2023-04-27T13:05:47.423Z,12.04
2023-04-27T13:08:37.134Z,11.91
2023-04-27T13:11:26.165Z,11.75
2023-04-27T13:14:15.843Z,11.70
2023-04-27T13:17:03.650Z,11.61
2023-04-27T13:19:51.920Z,11.48
2023-04-27T13:22:40.114Z,11.39
2023-04-27T13:25:28.684Z,11.40
2023-04-27T13:28:16.921Z,11.39
2023-04-27T13:31:03.671Z,11.44
2023-04-27T13:33:49.798Z,11.34
2023-04-27T13:36:36.290Z,11.27
2023-04-27T13:39:24.367Z,11.17
2023-04-27T13:42:11.874Z,11.12
2023-04-27T13:44:58.071Z,11.20
2023-04-27T13:47:44.326Z,11.21
2023-04-27T13:50:31.247Z,11.22
2023-04-27T13:53:18.074Z,11.22
2023-04-27T13:56:05.092Z,11.20
2023-04-27T13:58:51.624Z,11.16
2023-04-27T14:01:39.436Z,10.95
2023-04-27T14:04:25.837Z,10.66
2023-04-27T14:07:12.788Z,10.40
2023-04-27T14:09:59.714Z,10.17
2023-04-27T14:12:46.487Z,10.09
2023-04-27T14:15:36.493Z,10.09
2023-04-27T14:18:31.759Z,10.14
2023-04-27T14:21:18.948Z,10.31
2023-04-27T14:24:05.966Z,10.59
2023-04-27T14:26:52.473Z,10.86
2023-04-27T14:29:40.456Z,10.97
2023-04-27T14:32:28.120Z,11.05
2023-04-27T14:35:14.367Z,11.19
2023-04-27T14:38:03.884Z,11.16
2023-04-27T14:40:50.272Z,11.10
2023-04-27T14:43:36.609Z,11.16
2023-04-27T14:46:23.084Z,11.31
2023-04-27T14:49:10.903Z,11.47
2023-04-27T14:52:00.032Z,11.66
2023-04-27T14:54:46.318Z,11.73
2023-04-27T14:57:32.672Z,11.68
2023-04-27T15:00:20.720Z,11.58
2023-04-27T15:03:07.474Z,11.49
2023-04-27T15:05:54.311Z,11.29
2023-04-27T15:08:41.274Z,11.08
2023-04-27T15:11:28.011Z,10.81
2023-04-27T15:14:14.864Z,10.62
2023-04-27T15:17:01.767Z,10.59
2023-04-27T15:19:48.035Z,10.50
2023-04-27T15:22:35.373Z,10.35
2023-04-27T15:25:21.894Z,10.16
2023-04-27T15:28:10.528Z,9.98
2023-04-27T15:31:08.788Z,9.99
2023-04-27T15:33:59.091Z,10.09
2023-04-27T15:36:46.410Z,10.11
2023-04-27T15:39:38.970Z,10.08
2023-04-27T15:42:33.658Z,10.09
2023-04-27T15:45:29.436Z,10.11
2023-04-27T15:48:16.968Z,10.11
2023-04-27T15:51:10.348Z,10.15
2023-04-27T15:54:00.769Z,10.21
2023-04-27T15:56:49.568Z,10.22
2023-04-27T15:59:38.012Z,10.24
2023-04-27T16:02:26.978Z,10.25
2023-04-27T16:05:15.732Z,10.23
2023-04-27T16:08:02.919Z,10.18
2023-04-27T16:10:50.743Z,10.14
2023-04-27T16:13:37.109Z,10.04
2023-04-27T16:16:27.647Z,9.91
2023-04-27T16:19:14.627Z,9.73
2023-04-27T16:22:03.483Z,9.52
2023-04-27T16:24:50.192Z,9.43
2023-04-27T16:27:39.306Z,9.36
2023-04-27T16:30:25.805Z,9.30
2023-04-27T16:33:13.303Z,9.26
2023-04-27T16:36:03.198Z,9.17
2023-04-27T16:38:51.493Z,9.08
2023-04-27T16:41:38.223Z,8.99
2023-04-27T16:44:27.481Z,8.90
2023-04-27T16:47:14.204Z,8.79
2023-04-27T16:50:00.768Z,8.71
2023-04-27T16:52:50.106Z,8.64
2023-04-27T16:55:38.762Z,8.57
2023-04-27T16:58:32.370Z,8.50
2023-04-27T17:01:19.845Z,8.44
2023-04-27T17:04:11.653Z,8.39
2023-04-27T17:06:59.121Z,8.33
2023-04-27T17:09:46.042Z,8.27
2023-04-27T17:12:32.778Z,8.18
2023-04-27T17:15:19.258Z,8.11
2023-04-27T17:18:09.969Z,8.03
2023-04-27T17:20:57.107Z,7.96
2023-04-27T17:23:46.875Z,7.87
2023-04-27T17:26:34.425Z,7.77
2023-04-27T17:29:27.951Z,7.68
2023-04-27T17:32:16.059Z,7.57
2023-04-27T17:35:03.345Z,7.47
2023-04-27T17:37:51.302Z,7.36
2023-04-27T17:40:39.845Z,7.26
2023-04-27T17:43:27.123Z,7.15
2023-04-27T17:46:14.386Z,7.06
2023-04-27T17:49:02.626Z,6.96
2023-04-27T17:51:49.632Z,6.86
2023-04-27T17:54:36.097Z,6.77
2023-04-27T17:57:25.846Z,6.67
2023-04-27T18:00:17.487Z,6.59
2023-04-27T18:03:04.802Z,6.49
2023-04-27T18:06:00.129Z,6.40
2023-04-27T18:08:50.161Z,6.31
2023-04-27T18:11:38.777Z,6.20
2023-04-27T18:14:28.816Z,6.12
2023-04-27T18:17:17.241Z,6.04
2023-04-27T18:20:08.748Z,5.95
2023-04-27T18:22:57.622Z,5.86
2023-04-27T18:25:45.528Z,5.78
2023-04-27T18:28:32.754Z,5.71
2023-04-27T18:31:20.130Z,5.64
2023-04-27T18:34:07.672Z,5.59
2023-04-27T18:36:55.490Z,5.53
2023-04-27T18:39:42.037Z,5.46
2023-04-27T18:42:32.063Z,5.43
2023-04-27T18:45:19.320Z,5.38
2023-04-27T18:48:06.337Z,5.31
2023-04-27T18:50:52.762Z,5.24
2023-04-27T18:53:40.675Z,5.17
2023-04-27T18:56:27.791Z,5.09
2023-04-27T18:59:14.929Z,5.03
2023-04-27T19:02:02.080Z,4.96
2023-04-27T19:04:53.139Z,4.90
2023-04-27T19:07:48.584Z,4.83
2023-04-27T19:10:36.341Z,4.77
2023-04-27T19:13:22.934Z,4.71
2023-04-27T19:16:11.925Z,4.65
2023-04-27T19:18:58.197Z,4.59
2023-04-27T19:21:46.735Z,4.53
2023-04-27T19:24:33.644Z,4.49
2023-04-27T19:27:20.711Z,4.46
2023-04-27T19:30:09.744Z,4.42
2023-04-27T19:32:58.218Z,4.38
2023-04-27T19:35:45.266Z,4.34
2023-04-27T19:38:31.911Z,4.32
2023-04-27T19:41:19.557Z,4.30
2023-04-27T19:44:06.533Z,4.26
2023-04-27T19:46:53.184Z,4.22
2023-04-27T19:49:40.865Z,4.18
2023-04-27T19:52:27.852Z,4.15
2023-04-27T19:55:14.602Z,4.11
2023-04-27T19:58:01.477Z,4.07
2023-04-27T20:00:48.506Z,4.05
2023-04-27T20:03:37.350Z,4.02
2023-04-27T20:06:24.292Z,4.00
2023-04-27T20:09:12.867Z,3.98
2023-04-27T20:11:59.352Z,3.97
2023-04-27T20:14:46.352Z,3.95
2023-04-27T20:17:32.963Z,3.93
2023-04-27T20:20:20.063Z,3.90
2023-04-27T20:23:06.709Z,3.88
2023-04-27T20:25:54.243Z,3.87
2023-04-27T20:28:41.904Z,3.87
2023-04-27T20:31:30.211Z,3.85
2023-04-27T20:34:16.947Z,3.85
2023-04-27T20:37:04.864Z,3.83
2023-04-27T20:39:53.379Z,3.82
2023-04-27T20:42:40.012Z,3.79
2023-04-27T20:45:27.906Z,3.76
2023-04-27T20:48:14.624Z,3.75
2023-04-27T20:51:01.954Z,3.73
2023-04-27T20:53:48.553Z,3.71
2023-04-27T20:56:35.341Z,3.70
2023-04-27T20:59:22.152Z,3.68
2023-04-27T21:02:08.770Z,3.66
2023-04-27T21:04:55.560Z,3.64
2023-04-27T21:07:42.947Z,3.62
2023-04-27T21:10:29.367Z,3.59
2023-04-27T21:13:16.128Z,3.57
2023-04-27T21:16:02.370Z,3.54
2023-04-27T21:18:51.319Z,3.52
2023-04-27T21:21:37.885Z,3.50
2023-04-27T21:24:24.324Z,3.48
2023-04-27T21:27:15.008Z,3.46
2023-04-27T21:30:02.009Z,3.45
2023-04-27T21:32:51.419Z,3.44
2023-04-27T21:35:38.088Z,3.44
2023-04-27T21:38:31.386Z,3.42
2023-04-27T21:41:18.380Z,3.42
2023-04-27T21:44:04.651Z,3.41
2023-04-27T21:46:51.982Z,3.39
2023-04-27T21:49:39.774Z,3.37
2023-04-27T21:52:30.054Z,3.34
2023-04-27T21:55:16.937Z,3.34
2023-04-27T21:58:03.729Z,3.32
2023-04-27T22:00:53.772Z,3.31
2023-04-27T22:03:40.925Z,3.30
2023-04-27T22:06:30.765Z,3.30
2023-04-27T22:09:19.590Z,3.28
2023-04-27T22:12:06.586Z,3.28
2023-04-27T22:14:53.385Z,3.27
2023-04-27T22:17:40.036Z,3.26
2023-04-27T22:20:26.614Z,3.26
2023-04-27T22:23:14.026Z,3.23
2023-04-27T22:26:00.319Z,3.50
2023-04-27T22:28:47.089Z,4.90
2023-04-27T22:31:33.834Z,5.71
2023-04-27T22:34:20.453Z,5.18
2023-04-27T22:37:06.617Z,4.65
2023-04-27T22:39:54.854Z,4.29
2023-04-27T22:42:41.150Z,4.03
2023-04-27T22:45:28.586Z,3.84
2023-04-27T22:48:15.837Z,3.69
2023-04-27T22:51:07.620Z,3.58
2023-04-27T22:53:54.610Z,3.47
2023-04-27T22:56:42.566Z,3.40
2023-04-27T22:59:29.149Z,3.33
2023-04-27T23:02:15.767Z,3.58
2023-04-27T23:05:06.792Z,4.89
2023-04-27T23:07:54.363Z,5.67
2023-04-27T23:10:40.763Z,5.14
2023-04-27T23:13:27.505Z,4.61
2023-04-27T23:16:15.216Z,4.24
2023-04-27T23:19:01.764Z,3.97
2023-04-27T23:21:48.709Z,3.79
2023-04-27T23:24:35.323Z,3.65
2023-04-27T23:27:23.007Z,3.54
2023-04-27T23:30:15.458Z,3.45
2023-04-27T23:33:02.945Z,3.44
2023-04-27T23:35:49.469Z,4.38
2023-04-27T23:38:35.691Z,5.61
2023-04-27T23:41:22.851Z,5.59
2023-04-27T23:44:09.439Z,4.97
2023-04-27T23:46:56.254Z,4.50
2023-04-27T23:49:46.607Z,4.19
2023-04-27T23:52:33.313Z,3.96
2023-04-27T23:55:21.333Z,3.78
2023-04-27T23:58:08.048Z,3.63
